sensor_id;sensor_type;location;lat;lon;timestamp;temperature;humidity
36374;DHT22;22399;51.346;12.372;2023-09-19T00:00:21;17.90;99.90
36374;DHT22;22399;51.346;12.372;2023-09-19T00:02:53;17.80;99.90
36374;DHT22;22399;51.346;12.372;2023-09-19T00:05:22;17.80;99.90
36374;DHT22;22399;51.346;12.372;2023-09-19T00:07:51;17.70;99.90
36374;DHT22;22399;51.346;12.372;2023-09-19T00:10:22;17.70;99.90
36374;DHT22;22399;51.346;12.372;2023-09-19T00:12:51;17.70;99.90
36374;DHT22;22399;51.346;12.372;2023-09-19T00:15:22;17.70;99.90
36374;DHT22;22399;51.346;12.372;2023-09-19T00:17:52;17.60;99.90
36374;DHT22;22399;51.346;12.372;2023-09-19T00:20:20;17.50;99.90
36374;DHT22;22399;51.346;12.372;2023-09-19T00:22:50;17.50;99.90
36374;DHT22;22399;51.346;12.372;2023-09-19T00:25:22;17.50;99.90
36374;DHT22;22399;51.346;12.372;2023-09-19T00:27:50;17.50;99.90
36374;DHT22;22399;51.346;12.372;2023-09-19T00:30:18;17.50;99.90
36374;DHT22;22399;51.346;12.372;2023-09-19T00:32:51;17.40;99.90
36374;DHT22;22399;51.346;12.372;2023-09-19T00:35:22;17.40;99.90
36374;DHT22;22399;51.346;12.372;2023-09-19T00:37:51;17.40;99.90
36374;DHT22;22399;51.346;12.372;2023-09-19T00:40:21;17.40;99.90
36374;DHT22;22399;51.346;12.372;2023-09-19T00:42:50;17.40;99.90
36374;DHT22;22399;51.346;12.372;2023-09-19T00:45:19;17.40;99.90
36374;DHT22;22399;51.346;12.372;2023-09-19T00:47:49;17.40;99.90
36374;DHT22;22399;51.346;12.372;2023-09-19T00:50:19;17.40;99.90
36374;DHT22;22399;51.346;12.372;2023-09-19T00:52:49;17.30;99.90
36374;DHT22;22399;51.346;12.372;2023-09-19T00:55:18;17.30;99.90
36374;DHT22;22399;51.346;12.372;2023-09-19T00:57:49;17.30;99.90
36374;DHT22;22399;51.346;12.372;2023-09-19T01:00:18;17.30;99.90
36374;DHT22;22399;51.346;12.372;2023-09-19T01:02:48;17.30;99.90
36374;DHT22;22399;51.346;12.372;2023-09-19T01:05:17;17.30;99.90
36374;DHT22;22399;51.346;12.372;2023-09-19T01:07:46;17.20;99.90
36374;DHT22;22399;51.346;12.372;2023-09-19T01:10:18;17.20;99.90
36374;DHT22;22399;51.346;12.372;2023-09-19T01:12:55;17.20;99.90
36374;DHT22;22399;51.346;12.372;2023-09-19T01:15:44;17.20;99.90
36374;DHT22;22399;51.346;12.372;2023-09-19T01:18:29;17.10;99.90
36374;DHT22;22399;51.346;12.372;2023-09-19T01:21:07;17.10;99.90
36374;DHT22;22399;51.346;12.372;2023-09-19T01:26:46;17.10;99.90
36374;DHT22;22399;51.346;12.372;2023-09-19T01:29:27;17.10;99.90
36374;DHT22;22399;51.346;12.372;2023-09-19T01:32:04;17.10;99.90
36374;DHT22;22399;51.346;12.372;2023-09-19T01:34:44;17.10;99.90
36374;DHT22;22399;51.346;12.372;2023-09-19T01:37:14;17.10;99.90
36374;DHT22;22399;51.346;12.372;2023-09-19T01:39:49;17.00;99.90
36374;DHT22;22399;51.346;12.372;2023-09-19T01:42:24;17.00;99.90
36374;DHT22;22399;51.346;12.372;2023-09-19T01:45:02;16.90;99.90
36374;DHT22;22399;51.346;12.372;2023-09-19T01:47:37;16.90;99.90
36374;DHT22;22399;51.346;12.372;2023-09-19T01:50:13;16.90;99.90
36374;DHT22;22399;51.346;12.372;2023-09-19T01:52:49;16.90;99.90
36374;DHT22;22399;51.346;12.372;2023-09-19T01:55:19;16.80;99.90
36374;DHT22;22399;51.346;12.372;2023-09-19T01:57:54;16.80;99.90
36374;DHT22;22399;51.346;12.372;2023-09-19T02:00:25;16.80;99.90
36374;DHT22;22399;51.346;12.372;2023-09-19T02:02:57;16.80;99.90
36374;DHT22;22399;51.346;12.372;2023-09-19T02:05:26;16.80;99.90
36374;DHT22;22399;51.346;12.372;2023-09-19T02:07:55;16.80;99.90
36374;DHT22;22399;51.346;12.372;2023-09-19T02:10:26;16.70;99.90
36374;DHT22;22399;51.346;12.372;2023-09-19T02:12:54;16.80;99.90
36374;DHT22;22399;51.346;12.372;2023-09-19T02:15:23;16.80;99.90
36374;DHT22;22399;51.346;12.372;2023-09-19T02:17:51;16.80;99.90
36374;DHT22;22399;51.346;12.372;2023-09-19T02:20:21;16.80;99.90
36374;DHT22;22399;51.346;12.372;2023-09-19T02:22:49;16.90;99.90
36374;DHT22;22399;51.346;12.372;2023-09-19T02:25:19;16.90;99.90
36374;DHT22;22399;51.346;12.372;2023-09-19T02:27:47;17.00;99.90
36374;DHT22;22399;51.346;12.372;2023-09-19T02:30:16;17.00;99.90
36374;DHT22;22399;51.346;12.372;2023-09-19T02:32:48;17.10;99.90
36374;DHT22;22399;51.346;12.372;2023-09-19T02:35:16;17.10;99.90
36374;DHT22;22399;51.346;12.372;2023-09-19T02:37:48;17.30;99.90
36374;DHT22;22399;51.346;12.372;2023-09-19T02:40:17;17.30;99.90
36374;DHT22;22399;51.346;12.372;2023-09-19T02:42:52;17.30;99.90
36374;DHT22;22399;51.346;12.372;2023-09-19T02:45:22;17.30;99.90
36374;DHT22;22399;51.346;12.372;2023-09-19T02:47:51;17.30;99.90
36374;DHT22;22399;51.346;12.372;2023-09-19T02:50:20;17.30;99.90
36374;DHT22;22399;51.346;12.372;2023-09-19T02:52:49;17.20;99.90
36374;DHT22;22399;51.346;12.372;2023-09-19T02:55:19;17.30;99.90
36374;DHT22;22399;51.346;12.372;2023-09-19T02:57:50;17.20;99.90
36374;DHT22;22399;51.346;12.372;2023-09-19T03:00:20;17.30;99.90
36374;DHT22;22399;51.346;12.372;2023-09-19T03:02:49;17.30;99.90
36374;DHT22;22399;51.346;12.372;2023-09-19T03:05:19;17.40;99.90
36374;DHT22;22399;51.346;12.372;2023-09-19T03:07:50;17.40;99.90
36374;DHT22;22399;51.346;12.372;2023-09-19T03:10:20;17.40;99.90
36374;DHT22;22399;51.346;12.372;2023-09-19T03:12:49;17.40;99.90
36374;DHT22;22399;51.346;12.372;2023-09-19T03:15:19;17.40;99.90
36374;DHT22;22399;51.346;12.372;2023-09-19T03:17:49;17.50;99.90
36374;DHT22;22399;51.346;12.372;2023-09-19T03:20:21;17.60;99.90
36374;DHT22;22399;51.346;12.372;2023-09-19T03:22:51;17.60;99.90
36374;DHT22;22399;51.346;12.372;2023-09-19T03:25:21;17.60;99.90
36374;DHT22;22399;51.346;12.372;2023-09-19T03:27:50;17.60;99.90
36374;DHT22;22399;51.346;12.372;2023-09-19T03:30:21;17.60;99.90
36374;DHT22;22399;51.346;12.372;2023-09-19T03:32:49;17.60;99.90
36374;DHT22;22399;51.346;12.372;2023-09-19T03:35:18;17.60;99.90
36374;DHT22;22399;51.346;12.372;2023-09-19T03:37:47;17.50;99.90
36374;DHT22;22399;51.346;12.372;2023-09-19T03:40:18;17.50;99.90
36374;DHT22;22399;51.346;12.372;2023-09-19T03:42:49;17.50;99.90
36374;DHT22;22399;51.346;12.372;2023-09-19T03:45:17;17.40;99.90
36374;DHT22;22399;51.346;12.372;2023-09-19T03:47:54;17.40;99.90
36374;DHT22;22399;51.346;12.372;2023-09-19T03:50:24;17.40;99.90
36374;DHT22;22399;51.346;12.372;2023-09-19T03:52:56;17.30;99.90
36374;DHT22;22399;51.346;12.372;2023-09-19T03:55:26;17.30;99.90
36374;DHT22;22399;51.346;12.372;2023-09-19T03:57:55;17.30;99.90
36374;DHT22;22399;51.346;12.372;2023-09-19T04:00:24;17.20;99.90
36374;DHT22;22399;51.346;12.372;2023-09-19T04:02:53;17.20;99.90
36374;DHT22;22399;51.346;12.372;2023-09-19T04:05:23;17.20;99.90
36374;DHT22;22399;51.346;12.372;2023-09-19T04:07:52;17.20;99.90
36374;DHT22;22399;51.346;12.372;2023-09-19T04:10:20;17.20;99.90
36374;DHT22;22399;51.346;12.372;2023-09-19T04:12:53;17.20;99.90
36374;DHT22;22399;51.346;12.372;2023-09-19T04:15:22;17.20;99.90
36374;DHT22;22399;51.346;12.372;2023-09-19T04:17:53;17.20;99.90
36374;DHT22;22399;51.346;12.372;2023-09-19T04:20:22;17.20;99.90
36374;DHT22;22399;51.346;12.372;2023-09-19T04:22:51;17.10;99.90
36374;DHT22;22399;51.346;12.372;2023-09-19T04:25:20;17.10;99.90
36374;DHT22;22399;51.346;12.372;2023-09-19T04:27:48;17.10;99.90
36374;DHT22;22399;51.346;12.372;2023-09-19T04:30:18;17.00;99.90
36374;DHT22;22399;51.346;12.372;2023-09-19T04:32:48;17.10;99.90
36374;DHT22;22399;51.346;12.372;2023-09-19T04:35:18;17.00;99.90
36374;DHT22;22399;51.346;12.372;2023-09-19T04:37:47;17.10;99.90
36374;DHT22;22399;51.346;12.372;2023-09-19T04:40:16;17.00;99.90
36374;DHT22;22399;51.346;12.372;2023-09-19T04:42:53;17.00;99.90
36374;DHT22;22399;51.346;12.372;2023-09-19T04:45:24;17.00;99.90
36374;DHT22;22399;51.346;12.372;2023-09-19T04:47:53;17.00;99.90
36374;DHT22;22399;51.346;12.372;2023-09-19T04:50:23;16.90;99.90
36374;DHT22;22399;51.346;12.372;2023-09-19T04:52:53;16.90;99.90
36374;DHT22;22399;51.346;12.372;2023-09-19T04:55:22;16.90;99.90
36374;DHT22;22399;51.346;12.372;2023-09-19T04:57:50;16.90;99.90
36374;DHT22;22399;51.346;12.372;2023-09-19T05:00:20;16.90;99.90
36374;DHT22;22399;51.346;12.372;2023-09-19T05:02:54;16.90;99.90
36374;DHT22;22399;51.346;12.372;2023-09-19T05:05:23;17.00;99.90
36374;DHT22;22399;51.346;12.372;2023-09-19T05:07:53;16.90;99.90
36374;DHT22;22399;51.346;12.372;2023-09-19T05:10:23;16.80;99.90
36374;DHT22;22399;51.346;12.372;2023-09-19T05:12:53;16.90;99.90
36374;DHT22;22399;51.346;12.372;2023-09-19T05:15:21;16.80;99.90
36374;DHT22;22399;51.346;12.372;2023-09-19T05:17:51;16.90;99.90
36374;DHT22;22399;51.346;12.372;2023-09-19T05:20:25;16.80;99.90
36374;DHT22;22399;51.346;12.372;2023-09-19T05:23:01;16.80;99.90
36374;DHT22;22399;51.346;12.372;2023-09-19T05:25:31;16.80;99.90
36374;DHT22;22399;51.346;12.372;2023-09-19T05:28:04;16.70;99.90
36374;DHT22;22399;51.346;12.372;2023-09-19T05:30:33;16.70;99.90
36374;DHT22;22399;51.346;12.372;2023-09-19T05:33:05;16.60;99.90
36374;DHT22;22399;51.346;12.372;2023-09-19T05:35:33;16.70;99.90
36374;DHT22;22399;51.346;12.372;2023-09-19T05:38:04;16.60;99.90
36374;DHT22;22399;51.346;12.372;2023-09-19T05:40:35;16.70;99.90
36374;DHT22;22399;51.346;12.372;2023-09-19T05:43:06;16.80;99.90
36374;DHT22;22399;51.346;12.372;2023-09-19T05:45:35;16.90;99.90
36374;DHT22;22399;51.346;12.372;2023-09-19T05:48:09;16.90;99.90
36374;DHT22;22399;51.346;12.372;2023-09-19T05:50:38;16.90;99.90
36374;DHT22;22399;51.346;12.372;2023-09-19T05:53:06;17.00;99.90
36374;DHT22;22399;51.346;12.372;2023-09-19T05:55:35;17.00;99.90
36374;DHT22;22399;51.346;12.372;2023-09-19T05:58:03;17.00;99.90
36374;DHT22;22399;51.346;12.372;2023-09-19T06:00:32;17.10;99.90
36374;DHT22;22399;51.346;12.372;2023-09-19T06:03:02;17.20;99.90
36374;DHT22;22399;51.346;12.372;2023-09-19T06:05:32;17.70;99.90
36374;DHT22;22399;51.346;12.372;2023-09-19T06:08:01;18.40;99.90
36374;DHT22;22399;51.346;12.372;2023-09-19T06:10:35;18.70;99.90
36374;DHT22;22399;51.346;12.372;2023-09-19T06:13:04;18.80;99.90
36374;DHT22;22399;51.346;12.372;2023-09-19T06:15:33;18.80;99.90
36374;DHT22;22399;51.346;12.372;2023-09-19T06:18:03;18.60;99.90
36374;DHT22;22399;51.346;12.372;2023-09-19T06:20:34;18.60;99.90
36374;DHT22;22399;51.346;12.372;2023-09-19T06:23:03;18.60;99.90
36374;DHT22;22399;51.346;12.372;2023-09-19T06:25:31;19.10;99.90
36374;DHT22;22399;51.346;12.372;2023-09-19T06:28:00;20.10;99.90
36374;DHT22;22399;51.346;12.372;2023-09-19T06:30:32;20.80;99.90
36374;DHT22;22399;51.346;12.372;2023-09-19T06:33:01;21.40;98.30
36374;DHT22;22399;51.346;12.372;2023-09-19T06:35:33;22.00;97.20
36374;DHT22;22399;51.346;12.372;2023-09-19T06:38:03;22.30;95.80
36374;DHT22;22399;51.346;12.372;2023-09-19T06:40:33;22.50;95.10
36374;DHT22;22399;51.346;12.372;2023-09-19T06:43:02;22.80;94.20
36374;DHT22;22399;51.346;12.372;2023-09-19T06:45:30;22.80;93.30
36374;DHT22;22399;51.346;12.372;2023-09-19T06:47:59;22.90;93.30
36374;DHT22;22399;51.346;12.372;2023-09-19T06:50:30;23.30;92.80
36374;DHT22;22399;51.346;12.372;2023-09-19T06:53:01;23.50;91.90
36374;DHT22;22399;51.346;12.372;2023-09-19T06:55:29;23.80;91.80
36374;DHT22;22399;51.346;12.372;2023-09-19T06:57:59;23.20;90.70
36374;DHT22;22399;51.346;12.372;2023-09-19T07:00:28;22.70;91.50
36374;DHT22;22399;51.346;12.372;2023-09-19T07:02:59;23.00;91.80
36374;DHT22;22399;51.346;12.372;2023-09-19T07:05:32;23.50;91.00
36374;DHT22;22399;51.346;12.372;2023-09-19T07:08:08;24.10;90.20
36374;DHT22;22399;51.346;12.372;2023-09-19T07:10:38;24.70;89.20
36374;DHT22;22399;51.346;12.372;2023-09-19T07:13:08;24.90;87.20
36374;DHT22;22399;51.346;12.372;2023-09-19T07:15:38;25.10;86.30
36374;DHT22;22399;51.346;12.372;2023-09-19T07:18:14;25.20;85.60
36374;DHT22;22399;51.346;12.372;2023-09-19T07:20:44;24.90;85.30
36374;DHT22;22399;51.346;12.372;2023-09-19T07:23:18;24.70;85.20
36374;DHT22;22399;51.346;12.372;2023-09-19T07:25:48;24.10;85.80
36374;DHT22;22399;51.346;12.372;2023-09-19T07:28:17;24.00;86.70
36374;DHT22;22399;51.346;12.372;2023-09-19T07:30:46;23.60;85.60
36374;DHT22;22399;51.346;12.372;2023-09-19T07:33:14;22.90;86.10
36374;DHT22;22399;51.346;12.372;2023-09-19T07:35:45;22.20;85.60
36374;DHT22;22399;51.346;12.372;2023-09-19T07:38:14;21.70;86.60
36374;DHT22;22399;51.346;12.372;2023-09-19T07:40:44;22.10;87.50
36374;DHT22;22399;51.346;12.372;2023-09-19T07:43:12;22.80;84.40
36374;DHT22;22399;51.346;12.372;2023-09-19T07:45:41;23.00;83.20
36374;DHT22;22399;51.346;12.372;2023-09-19T07:48:10;23.00;82.00
36374;DHT22;22399;51.346;12.372;2023-09-19T07:50:41;23.20;81.80
36374;DHT22;22399;51.346;12.372;2023-09-19T07:53:12;23.40;80.00
36374;DHT22;22399;51.346;12.372;2023-09-19T07:55:40;23.10;79.90
36374;DHT22;22399;51.346;12.372;2023-09-19T07:58:10;22.70;80.20
36374;DHT22;22399;51.346;12.372;2023-09-19T08:00:40;22.60;80.90
36374;DHT22;22399;51.346;12.372;2023-09-19T08:03:09;22.60;80.70
36374;DHT22;22399;51.346;12.372;2023-09-19T08:05:44;22.80;79.50
36374;DHT22;22399;51.346;12.372;2023-09-19T08:08:13;22.70;78.40
36374;DHT22;22399;51.346;12.372;2023-09-19T08:10:43;22.60;78.50
36374;DHT22;22399;51.346;12.372;2023-09-19T08:13:15;22.50;78.80
36374;DHT22;22399;51.346;12.372;2023-09-19T08:15:45;22.40;78.60
36374;DHT22;22399;51.346;12.372;2023-09-19T08:18:15;22.10;78.30
36374;DHT22;22399;51.346;12.372;2023-09-19T08:20:48;21.80;78.50
36374;DHT22;22399;51.346;12.372;2023-09-19T08:23:17;21.50;78.10
36374;DHT22;22399;51.346;12.372;2023-09-19T08:25:47;21.20;78.00
36374;DHT22;22399;51.346;12.372;2023-09-19T08:28:17;20.90;78.00
36374;DHT22;22399;51.346;12.372;2023-09-19T08:30:51;20.70;78.60
36374;DHT22;22399;51.346;12.372;2023-09-19T08:33:20;20.50;78.30
36374;DHT22;22399;51.346;12.372;2023-09-19T08:35:48;20.40;78.50
36374;DHT22;22399;51.346;12.372;2023-09-19T08:38:16;20.40;79.40
36374;DHT22;22399;51.346;12.372;2023-09-19T08:40:45;20.50;78.50
36374;DHT22;22399;51.346;12.372;2023-09-19T08:43:13;20.50;78.10
36374;DHT22;22399;51.346;12.372;2023-09-19T08:45:43;20.50;78.10
36374;DHT22;22399;51.346;12.372;2023-09-19T08:48:20;20.40;78.20
36374;DHT22;22399;51.346;12.372;2023-09-19T08:50:54;20.70;78.40
36374;DHT22;22399;51.346;12.372;2023-09-19T08:53:31;21.00;78.10
36374;DHT22;22399;51.346;12.372;2023-09-19T08:56:03;21.00;77.40
36374;DHT22;22399;51.346;12.372;2023-09-19T08:58:40;21.20;77.60
36374;DHT22;22399;51.346;12.372;2023-09-19T09:01:11;21.30;77.20
36374;DHT22;22399;51.346;12.372;2023-09-19T09:03:42;21.50;76.80
36374;DHT22;22399;51.346;12.372;2023-09-19T09:06:16;21.80;76.40
36374;DHT22;22399;51.346;12.372;2023-09-19T09:08:45;22.00;75.70
36374;DHT22;22399;51.346;12.372;2023-09-19T09:11:15;22.20;75.30
36374;DHT22;22399;51.346;12.372;2023-09-19T09:13:44;22.70;75.30
36374;DHT22;22399;51.346;12.372;2023-09-19T09:16:15;22.90;73.80
36374;DHT22;22399;51.346;12.372;2023-09-19T09:18:46;23.00;72.60
36374;DHT22;22399;51.346;12.372;2023-09-19T09:21:20;23.20;72.60
36374;DHT22;22399;51.346;12.372;2023-09-19T09:23:49;23.30;72.30
36374;DHT22;22399;51.346;12.372;2023-09-19T09:26:40;23.30;71.40
36374;DHT22;22399;51.346;12.372;2023-09-19T09:29:10;23.40;71.40
36374;DHT22;22399;51.346;12.372;2023-09-19T09:31:41;23.50;70.20
36374;DHT22;22399;51.346;12.372;2023-09-19T09:34:11;23.30;69.70
36374;DHT22;22399;51.346;12.372;2023-09-19T09:36:41;23.20;69.80
36374;DHT22;22399;51.346;12.372;2023-09-19T09:39:09;23.30;69.00
36374;DHT22;22399;51.346;12.372;2023-09-19T09:41:46;23.40;68.50
36374;DHT22;22399;51.346;12.372;2023-09-19T09:44:15;23.70;67.80
36374;DHT22;22399;51.346;12.372;2023-09-19T09:46:48;23.70;66.80
36374;DHT22;22399;51.346;12.372;2023-09-19T09:49:47;23.90;67.00
36374;DHT22;22399;51.346;12.372;2023-09-19T09:52:21;24.40;66.30
36374;DHT22;22399;51.346;12.372;2023-09-19T09:54:59;24.60;65.60
36374;DHT22;22399;51.346;12.372;2023-09-19T09:57:28;24.50;65.00
36374;DHT22;22399;51.346;12.372;2023-09-19T09:59:58;24.10;64.20
36374;DHT22;22399;51.346;12.372;2023-09-19T10:02:44;23.90;64.80
36374;DHT22;22399;51.346;12.372;2023-09-19T10:05:15;23.80;65.20
36374;DHT22;22399;51.346;12.372;2023-09-19T10:08:10;23.60;64.60
36374;DHT22;22399;51.346;12.372;2023-09-19T10:10:40;23.50;64.70
36374;DHT22;22399;51.346;12.372;2023-09-19T10:13:22;23.40;64.50
36374;DHT22;22399;51.346;12.372;2023-09-19T10:15:56;23.30;64.50
36374;DHT22;22399;51.346;12.372;2023-09-19T10:18:29;23.30;64.70
36374;DHT22;22399;51.346;12.372;2023-09-19T10:21:02;23.20;64.40
36374;DHT22;22399;51.346;12.372;2023-09-19T10:23:34;23.00;64.20
36374;DHT22;22399;51.346;12.372;2023-09-19T10:26:05;22.80;64.10
36374;DHT22;22399;51.346;12.372;2023-09-19T10:28:38;22.70;64.50
36374;DHT22;22399;51.346;12.372;2023-09-19T10:31:07;22.80;64.50
36374;DHT22;22399;51.346;12.372;2023-09-19T10:33:43;22.80;64.30
36374;DHT22;22399;51.346;12.372;2023-09-19T10:36:12;22.80;64.30
36374;DHT22;22399;51.346;12.372;2023-09-19T10:38:43;23.00;64.50
36374;DHT22;22399;51.346;12.372;2023-09-19T10:41:14;23.10;64.10
36374;DHT22;22399;51.346;12.372;2023-09-19T10:43:46;23.30;63.80
36374;DHT22;22399;51.346;12.372;2023-09-19T10:46:16;23.30;63.30
36374;DHT22;22399;51.346;12.372;2023-09-19T10:48:46;23.20;63.00
36374;DHT22;22399;51.346;12.372;2023-09-19T10:51:19;23.30;63.10
36374;DHT22;22399;51.346;12.372;2023-09-19T10:53:54;23.40;63.10
36374;DHT22;22399;51.346;12.372;2023-09-19T10:56:26;23.60;62.80
36374;DHT22;22399;51.346;12.372;2023-09-19T10:59:06;23.80;61.90
36374;DHT22;22399;51.346;12.372;2023-09-19T11:01:45;23.80;62.00
36374;DHT22;22399;51.346;12.372;2023-09-19T11:04:27;23.90;61.50
36374;DHT22;22399;51.346;12.372;2023-09-19T11:07:04;23.70;61.20
36374;DHT22;22399;51.346;12.372;2023-09-19T11:09:43;23.70;61.20
36374;DHT22;22399;51.346;12.372;2023-09-19T11:15:08;23.80;60.30
36374;DHT22;22399;51.346;12.372;2023-09-19T11:17:38;23.80;59.70
36374;DHT22;22399;51.346;12.372;2023-09-19T11:20:25;23.80;59.80
36374;DHT22;22399;51.346;12.372;2023-09-19T11:23:22;24.00;60.00
36374;DHT22;22399;51.346;12.372;2023-09-19T11:25:51;23.90;59.40
36374;DHT22;22399;51.346;12.372;2023-09-19T11:28:34;23.90;59.90
36374;DHT22;22399;51.346;12.372;2023-09-19T11:34:43;23.90;58.90
36374;DHT22;22399;51.346;12.372;2023-09-19T11:40:52;24.30;58.10
36374;DHT22;22399;51.346;12.372;2023-09-19T11:43:37;24.30;58.00
36374;DHT22;22399;51.346;12.372;2023-09-19T11:46:07;24.40;57.30
36374;DHT22;22399;51.346;12.372;2023-09-19T11:48:36;24.60;57.50
36374;DHT22;22399;51.346;12.372;2023-09-19T11:51:19;24.60;57.00
36374;DHT22;22399;51.346;12.372;2023-09-19T11:53:50;24.60;57.10
36374;DHT22;22399;51.346;12.372;2023-09-19T11:56:21;24.50;56.80
36374;DHT22;22399;51.346;12.372;2023-09-19T11:58:52;24.80;57.20
36374;DHT22;22399;51.346;12.372;2023-09-19T12:01:29;25.10;56.90
36374;DHT22;22399;51.346;12.372;2023-09-19T12:04:01;25.10;56.60
36374;DHT22;22399;51.346;12.372;2023-09-19T12:06:32;25.20;56.50
36374;DHT22;22399;51.346;12.372;2023-09-19T12:09:00;25.20;56.60
36374;DHT22;22399;51.346;12.372;2023-09-19T12:11:41;25.30;56.30
36374;DHT22;22399;51.346;12.372;2023-09-19T12:14:11;25.00;55.80
36374;DHT22;22399;51.346;12.372;2023-09-19T12:16:51;25.20;55.50
36374;DHT22;22399;51.346;12.372;2023-09-19T12:19:23;25.10;55.50
36374;DHT22;22399;51.346;12.372;2023-09-19T12:21:55;25.10;55.30
36374;DHT22;22399;51.346;12.372;2023-09-19T12:24:27;24.60;55.10
36374;DHT22;22399;51.346;12.372;2023-09-19T12:27:04;24.30;55.00
36374;DHT22;22399;51.346;12.372;2023-09-19T12:29:42;23.90;55.40
36374;DHT22;22399;51.346;12.372;2023-09-19T12:32:11;23.60;55.40
36374;DHT22;22399;51.346;12.372;2023-09-19T12:34:41;23.40;55.80
36374;DHT22;22399;51.346;12.372;2023-09-19T12:37:11;23.50;55.80
36374;DHT22;22399;51.346;12.372;2023-09-19T12:39:43;23.80;55.90
36374;DHT22;22399;51.346;12.372;2023-09-19T12:42:19;23.80;55.20
36374;DHT22;22399;51.346;12.372;2023-09-19T12:44:49;23.60;54.90
36374;DHT22;22399;51.346;12.372;2023-09-19T12:47:18;23.40;54.90
36374;DHT22;22399;51.346;12.372;2023-09-19T12:50:10;23.10;54.70
36374;DHT22;22399;51.346;12.372;2023-09-19T12:52:43;22.80;55.10
36374;DHT22;22399;51.346;12.372;2023-09-19T12:55:22;22.90;55.40
36374;DHT22;22399;51.346;12.372;2023-09-19T12:58:08;23.00;55.30
36374;DHT22;22399;51.346;12.372;2023-09-19T13:00:37;23.50;55.20
36374;DHT22;22399;51.346;12.372;2023-09-19T13:03:17;23.90;54.30
36374;DHT22;22399;51.346;12.372;2023-09-19T13:05:53;24.20;54.20
36374;DHT22;22399;51.346;12.372;2023-09-19T13:08:26;24.60;53.70
36374;DHT22;22399;51.346;12.372;2023-09-19T13:11:01;24.60;53.90
36374;DHT22;22399;51.346;12.372;2023-09-19T13:13:31;24.60;53.40
36374;DHT22;22399;51.346;12.372;2023-09-19T13:16:02;24.80;53.30
36374;DHT22;22399;51.346;12.372;2023-09-19T13:18:31;24.80;52.60
36374;DHT22;22399;51.346;12.372;2023-09-19T13:21:06;24.80;52.40
36374;DHT22;22399;51.346;12.372;2023-09-19T13:23:37;24.80;52.50
36374;DHT22;22399;51.346;12.372;2023-09-19T13:26:07;24.70;52.50
36374;DHT22;22399;51.346;12.372;2023-09-19T13:28:37;24.40;52.50
36374;DHT22;22399;51.346;12.372;2023-09-19T13:31:06;23.90;53.00
36374;DHT22;22399;51.346;12.372;2023-09-19T13:33:34;23.70;53.70
36374;DHT22;22399;51.346;12.372;2023-09-19T13:36:03;23.70;53.20
36374;DHT22;22399;51.346;12.372;2023-09-19T13:38:32;23.80;53.30
36374;DHT22;22399;51.346;12.372;2023-09-19T13:41:01;24.20;53.10
36374;DHT22;22399;51.346;12.372;2023-09-19T13:43:30;24.50;52.60
36374;DHT22;22399;51.346;12.372;2023-09-19T13:45:59;24.70;52.40
36374;DHT22;22399;51.346;12.372;2023-09-19T13:48:30;24.30;52.40
36374;DHT22;22399;51.346;12.372;2023-09-19T13:50:58;24.20;52.70
36374;DHT22;22399;51.346;12.372;2023-09-19T13:53:27;24.40;52.50
36374;DHT22;22399;51.346;12.372;2023-09-19T13:55:55;24.40;52.40
36374;DHT22;22399;51.346;12.372;2023-09-19T13:58:24;24.70;52.30
36374;DHT22;22399;51.346;12.372;2023-09-19T14:00:55;24.70;51.80
36374;DHT22;22399;51.346;12.372;2023-09-19T14:03:27;24.50;52.00
36374;DHT22;22399;51.346;12.372;2023-09-19T14:05:55;24.70;51.60
36374;DHT22;22399;51.346;12.372;2023-09-19T14:08:24;25.00;51.40
36374;DHT22;22399;51.346;12.372;2023-09-19T14:10:52;25.00;50.90
36374;DHT22;22399;51.346;12.372;2023-09-19T14:13:21;25.00;50.60
36374;DHT22;22399;51.346;12.372;2023-09-19T14:15:49;24.90;50.20
36374;DHT22;22399;51.346;12.372;2023-09-19T14:18:17;24.70;50.20
36374;DHT22;22399;51.346;12.372;2023-09-19T14:20:48;24.30;50.60
36374;DHT22;22399;51.346;12.372;2023-09-19T14:23:20;24.20;51.10
36374;DHT22;22399;51.346;12.372;2023-09-19T14:25:48;23.90;51.50
36374;DHT22;22399;51.346;12.372;2023-09-19T14:28:16;23.90;52.10
36374;DHT22;22399;51.346;12.372;2023-09-19T14:30:45;23.80;52.30
36374;DHT22;22399;51.346;12.372;2023-09-19T14:33:16;23.80;52.40
36374;DHT22;22399;51.346;12.372;2023-09-19T14:35:44;23.80;52.50
36374;DHT22;22399;51.346;12.372;2023-09-19T14:38:14;23.70;52.60
36374;DHT22;22399;51.346;12.372;2023-09-19T14:40:43;23.60;52.60
36374;DHT22;22399;51.346;12.372;2023-09-19T14:43:11;23.50;52.60
36374;DHT22;22399;51.346;12.372;2023-09-19T14:45:39;23.40;52.60
36374;DHT22;22399;51.346;12.372;2023-09-19T14:48:08;23.30;52.80
36374;DHT22;22399;51.346;12.372;2023-09-19T14:50:38;23.30;52.70
36374;DHT22;22399;51.346;12.372;2023-09-19T14:53:07;23.20;52.80
36374;DHT22;22399;51.346;12.372;2023-09-19T14:55:39;23.10;52.50
36374;DHT22;22399;51.346;12.372;2023-09-19T14:58:08;23.00;52.60
36374;DHT22;22399;51.346;12.372;2023-09-19T15:00:36;23.00;52.60
36374;DHT22;22399;51.346;12.372;2023-09-19T15:03:05;22.90;52.60
36374;DHT22;22399;51.346;12.372;2023-09-19T15:05:34;22.90;52.70
36374;DHT22;22399;51.346;12.372;2023-09-19T15:08:03;22.80;52.80
36374;DHT22;22399;51.346;12.372;2023-09-19T15:10:32;22.50;52.70
36374;DHT22;22399;51.346;12.372;2023-09-19T15:13:01;22.50;53.00
36374;DHT22;22399;51.346;12.372;2023-09-19T15:15:31;22.50;52.90
36374;DHT22;22399;51.346;12.372;2023-09-19T15:18:00;22.40;52.80
36374;DHT22;22399;51.346;12.372;2023-09-19T15:20:28;22.40;52.80
36374;DHT22;22399;51.346;12.372;2023-09-19T15:22:57;22.40;52.60
36374;DHT22;22399;51.346;12.372;2023-09-19T15:25:25;22.40;52.70
36374;DHT22;22399;51.346;12.372;2023-09-19T15:27:54;22.40;52.50
36374;DHT22;22399;51.346;12.372;2023-09-19T15:30:26;22.30;52.40
36374;DHT22;22399;51.346;12.372;2023-09-19T15:32:54;22.30;52.50
36374;DHT22;22399;51.346;12.372;2023-09-19T15:35:24;22.20;52.30
36374;DHT22;22399;51.346;12.372;2023-09-19T15:37:53;22.20;52.50
36374;DHT22;22399;51.346;12.372;2023-09-19T15:40:23;22.10;52.50
36374;DHT22;22399;51.346;12.372;2023-09-19T15:42:51;21.90;52.40
36374;DHT22;22399;51.346;12.372;2023-09-19T15:45:20;21.80;52.50
36374;DHT22;22399;51.346;12.372;2023-09-19T15:47:50;21.70;52.60
36374;DHT22;22399;51.346;12.372;2023-09-19T15:50:18;21.50;52.60
36374;DHT22;22399;51.346;12.372;2023-09-19T15:52:53;21.40;52.70